createdAt,value
2023-02-28T00:02:03.468Z,19
2023-02-28T00:12:17.566Z,19
2023-02-28T00:17:23.721Z,19
2023-02-28T00:22:31.691Z,19
2023-02-28T00:27:39.646Z,19
2023-02-28T00:32:47.557Z,19
2023-02-28T00:37:55.546Z,19
2023-02-28T00:43:03.502Z,19
2023-02-28T00:48:11.428Z,19
2023-02-28T00:53:19.382Z,19
2023-02-28T01:03:35.312Z,18.9
2023-02-28T01:08:43.245Z,18.9
2023-02-28T01:13:51.227Z,18.9
2023-02-28T01:18:59.179Z,18.9
2023-02-28T01:24:07.106Z,18.9
2023-02-28T01:29:15.057Z,18.9
2023-02-28T01:39:30.995Z,18.9
2023-02-28T01:44:38.916Z,18.9
2023-02-28T01:49:46.857Z,18.9
2023-02-28T01:54:54.858Z,18.9
2023-02-28T02:00:02.758Z,18.9
2023-02-28T02:05:10.712Z,18.9
2023-02-28T02:10:18.721Z,18.9
2023-02-28T02:15:26.634Z,18.9
2023-02-28T02:20:34.589Z,18.8
2023-02-28T02:25:42.568Z,18.8
2023-02-28T02:35:58.542Z,18.8
2023-02-28T02:41:04.665Z,18.8
2023-02-28T02:46:10.774Z,18.8
2023-02-28T02:51:18.722Z,18.8
2023-02-28T02:56:24.940Z,18.8
2023-02-28T03:01:33.060Z,18.8
2023-02-28T03:06:39.017Z,18.8
2023-02-28T03:11:47.001Z,18.8
2023-02-28T03:16:54.913Z,18.8
2023-02-28T03:22:02.858Z,18.8
2023-02-28T03:27:09.055Z,18.8
2023-02-28T03:32:15.389Z,18.8
2023-02-28T03:37:23.201Z,18.8
2023-02-28T03:42:31.129Z,18.8
2023-02-28T03:47:37.272Z,18.8
2023-02-28T03:52:45.201Z,18.8
2023-02-28T03:57:51.424Z,18.8
2023-02-28T04:02:57.551Z,18.7
2023-02-28T04:08:05.496Z,18.7
2023-02-28T04:13:13.485Z,18.7
2023-02-28T04:18:19.628Z,18.7
2023-02-28T04:23:27.592Z,18.7
2023-02-28T04:28:35.565Z,18.6
2023-02-28T04:33:43.487Z,18.6
2023-02-28T04:38:51.451Z,18.5
2023-02-28T04:43:59.423Z,18.5
2023-02-28T04:49:07.341Z,18.5
2023-02-28T04:54:15.299Z,18.5
2023-02-28T04:59:23.265Z,18.4
2023-02-28T05:04:31.220Z,18.4
2023-02-28T05:09:39.157Z,18.4
2023-02-28T05:14:47.118Z,18.5
2023-02-28T05:20:01.087Z,18.7
2023-02-28T05:25:03.010Z,18.7
2023-02-28T05:30:10.996Z,18.8
2023-02-28T05:35:18.896Z,18.8
2023-02-28T05:40:26.898Z,18.9
2023-02-28T05:45:34.898Z,19
2023-02-28T05:50:42.769Z,19.1
2023-02-28T05:55:50.727Z,19.1
2023-02-28T06:00:58.711Z,19.2
2023-02-28T06:06:06.622Z,19.2
2023-02-28T06:11:14.601Z,19.2
2023-02-28T06:16:22.600Z,19.2
2023-02-28T06:21:30.917Z,19.2
2023-02-28T06:26:38.446Z,19.2
2023-02-28T06:31:46.521Z,19.1
2023-02-28T06:36:54.352Z,19
2023-02-28T06:42:02.310Z,18.9
2023-02-28T06:47:10.289Z,18.8
2023-02-28T06:52:18.229Z,18.9
2023-02-28T06:57:26.157Z,19
2023-02-28T07:02:32.355Z,19
2023-02-28T07:07:40.275Z,19.1
2023-02-28T07:12:48.204Z,19.2
2023-02-28T07:17:54.511Z,19.3
2023-02-28T07:23:02.340Z,19.4
2023-02-28T07:28:10.273Z,19.4
2023-02-28T07:33:18.260Z,19.5
2023-02-28T07:38:24.392Z,19.6
2023-02-28T07:43:30.567Z,19.6
2023-02-28T07:48:36.763Z,19.6
2023-02-28T07:53:44.720Z,19.6
2023-02-28T07:58:52.660Z,19.6
2023-02-28T08:03:58.835Z,19.6
2023-02-28T08:09:06.763Z,19.6
2023-02-28T08:14:12.938Z,19.6
2023-02-28T08:19:20.897Z,19.7
2023-02-28T08:24:28.825Z,19.7
2023-02-28T08:29:36.805Z,19.7
2023-02-28T08:34:46.940Z,19.8
2023-02-28T08:39:56.018Z,19.8
2023-02-28T08:45:00.667Z,19.9
2023-02-28T08:50:08.639Z,19.9
2023-02-28T08:55:16.751Z,20
2023-02-28T09:00:24.541Z,20
2023-02-28T09:05:32.480Z,20
2023-02-28T09:10:40.448Z,19.9
2023-02-28T09:15:48.351Z,19.9
2023-02-28T09:20:56.328Z,20
2023-02-28T09:26:04.261Z,20
2023-02-28T09:36:20.961Z,19.9
2023-02-28T09:41:28.117Z,20
2023-02-28T09:46:36.637Z,19.9
2023-02-28T09:51:44.072Z,20
2023-02-28T09:56:51.999Z,20
2023-02-28T10:01:59.934Z,20
2023-02-28T10:07:07.895Z,20
2023-02-28T10:12:15.840Z,20
2023-02-28T10:17:23.815Z,20.1
2023-02-28T10:22:31.782Z,20.1
2023-02-28T10:27:39.705Z,20.1
2023-02-28T10:32:47.664Z,20.1
2023-02-28T10:37:55.663Z,20.1
2023-02-28T10:43:03.587Z,20
2023-02-28T10:48:11.514Z,20
2023-02-28T10:53:19.527Z,19.9
2023-02-28T10:58:27.433Z,19.8
2023-02-28T11:03:35.364Z,19.8
2023-02-28T11:08:43.422Z,19.8
2023-02-28T11:13:51.288Z,19.8
2023-02-28T11:18:57.470Z,19.9
2023-02-28T11:24:05.427Z,19.9
2023-02-28T11:29:11.587Z,20
2023-02-28T11:34:19.511Z,20.1
2023-02-28T11:39:27.491Z,20.2
2023-02-28T11:44:33.680Z,20.2
2023-02-28T11:49:41.568Z,20.2
2023-02-28T11:54:47.762Z,20.1
2023-02-28T11:59:55.694Z,20.1
2023-02-28T12:05:03.657Z,20
2023-02-28T12:10:09.835Z,20
2023-02-28T12:15:16.015Z,20
2023-02-28T12:20:23.922Z,20
2023-02-28T12:25:31.913Z,20
2023-02-28T12:30:38.046Z,20.1
2023-02-28T12:35:46.081Z,20.1
2023-02-28T12:40:54.067Z,20.1
2023-02-28T12:46:02.080Z,20.2
2023-02-28T12:51:09.860Z,20.3
2023-02-28T12:56:17.842Z,20.3
2023-02-28T13:01:25.804Z,20.4
2023-02-28T13:06:33.736Z,20.5
2023-02-28T13:11:41.716Z,20.5
2023-02-28T13:16:49.657Z,20.6
2023-02-28T13:21:57.571Z,20.6
2023-02-28T13:27:05.586Z,20.7
2023-02-28T13:32:13.559Z,20.7
2023-02-28T13:37:21.461Z,20.7
2023-02-28T13:42:29.413Z,20.7
2023-02-28T13:47:37.439Z,20.7
2023-02-28T13:52:49.008Z,20.7
2023-02-28T13:57:53.274Z,20.7
2023-02-28T14:03:01.238Z,20.6
2023-02-28T14:08:09.139Z,20.6
2023-02-28T14:13:17.188Z,20.6
2023-02-28T14:18:27.046Z,20.6
2023-02-28T14:23:33.023Z,20.5
2023-02-28T14:28:41.001Z,20.5
2023-02-28T14:33:48.956Z,20.5
2023-02-28T14:38:56.890Z,20.5
2023-02-28T14:44:04.863Z,20.5
2023-02-28T14:49:12.773Z,20.5
2023-02-28T14:54:20.741Z,20.5
2023-02-28T14:59:28.697Z,20.5
2023-02-28T15:04:36.735Z,20.5
2023-02-28T15:09:44.608Z,20.4
2023-02-28T15:14:52.678Z,20.3
2023-02-28T15:20:00.598Z,20.3
2023-02-28T15:25:08.487Z,20.2
2023-02-28T15:30:16.420Z,20.2
2023-02-28T15:35:24.346Z,20.2
2023-02-28T15:40:30.512Z,20.1
2023-02-28T15:45:36.716Z,20.1
2023-02-28T15:50:42.854Z,20.1
2023-02-28T15:55:48.993Z,20.1
2023-02-28T16:00:55.228Z,20.1
2023-02-28T16:06:03.141Z,20.1
2023-02-28T16:11:11.096Z,20.1
2023-02-28T16:16:17.317Z,20.1
2023-02-28T16:21:25.200Z,20.1
2023-02-28T16:26:33.129Z,20
2023-02-28T16:31:41.110Z,20
2023-02-28T16:36:49.041Z,20
2023-02-28T16:41:57.011Z,20
2023-02-28T16:47:05.020Z,20
2023-02-28T16:52:12.910Z,20
2023-02-28T16:57:20.855Z,19.9
2023-02-28T17:02:29.060Z,19.9
2023-02-28T17:07:36.792Z,19.9
2023-02-28T17:12:44.737Z,19.9
2023-02-28T17:17:52.732Z,19.9
2023-02-28T17:23:00.621Z,19.9
2023-02-28T17:28:08.583Z,19.9
2023-02-28T17:33:16.603Z,19.9
2023-02-28T17:38:24.505Z,19.9
2023-02-28T17:43:32.450Z,19.9
2023-02-28T17:48:40.444Z,19.9
2023-02-28T17:53:48.367Z,19.8
2023-02-28T17:58:56.331Z,19.8
2023-02-28T18:04:04.293Z,19.8
2023-02-28T18:09:12.219Z,19.8
2023-02-28T18:14:20.185Z,19.8
2023-02-28T18:19:28.161Z,19.8
2023-02-28T18:24:36.110Z,19.7
2023-02-28T18:29:44.050Z,19.7
2023-02-28T18:34:52.018Z,19.7
2023-02-28T18:39:59.935Z,19.7
2023-02-28T18:45:07.898Z,19.7
2023-02-28T18:50:15.858Z,19.7
2023-02-28T18:55:23.842Z,19.6
2023-02-28T19:00:31.836Z,19.6
2023-02-28T19:05:39.739Z,19.6
2023-02-28T19:10:47.664Z,19.6
2023-02-28T19:15:57.610Z,19.6
2023-02-28T19:21:03.603Z,19.6
2023-02-28T19:26:11.523Z,19.6
2023-02-28T19:31:19.577Z,19.6
2023-02-28T19:36:27.492Z,19.6
2023-02-28T19:41:35.364Z,19.6
2023-02-28T19:46:43.342Z,19.5
2023-02-28T19:51:51.305Z,19.5
2023-02-28T19:56:57.447Z,19.5
2023-02-28T20:02:03.609Z,19.5
2023-02-28T20:07:11.583Z,19.5
2023-02-28T20:12:24.623Z,19.5
2023-02-28T20:17:23.911Z,19.5
2023-02-28T20:22:31.872Z,19.5
2023-02-28T20:27:38.029Z,19.5
2023-02-28T20:32:45.990Z,19.5
2023-02-28T20:37:53.956Z,19.5
2023-02-28T20:43:01.870Z,19.5
2023-02-28T20:48:09.835Z,19.5
2023-02-28T20:53:17.955Z,19.5
2023-02-28T20:58:25.750Z,19.5
2023-02-28T21:03:33.684Z,19.5
2023-02-28T21:08:41.690Z,19.4
2023-02-28T21:13:49.626Z,19.4
2023-02-28T21:18:57.560Z,19.4
2023-02-28T21:24:05.549Z,19.4
2023-02-28T21:29:13.498Z,19.4
2023-02-28T21:34:21.432Z,19.4
2023-02-28T21:39:29.442Z,19.4
2023-02-28T21:44:37.320Z,19.4
2023-02-28T21:49:45.274Z,19.4
2023-02-28T21:54:53.274Z,19.4
2023-02-28T22:00:01.189Z,19.4
2023-02-28T22:05:09.153Z,19.4
2023-02-28T22:10:17.124Z,19.4
2023-02-28T22:15:25.068Z,19.4
2023-02-28T22:20:32.985Z,19.4
2023-02-28T22:25:40.968Z,19.4
2023-02-28T22:30:48.906Z,19.4
2023-02-28T22:35:56.868Z,19.3
2023-02-28T22:41:04.886Z,19.3
2023-02-28T22:46:12.895Z,19.3
2023-02-28T22:51:20.719Z,19.3
2023-02-28T22:56:29.175Z,19.3
2023-02-28T23:01:36.728Z,19.3
2023-02-28T23:06:44.600Z,19.3
2023-02-28T23:11:52.572Z,19.3
2023-02-28T23:17:00.514Z,19.3
2023-02-28T23:22:08.432Z,19.3
2023-02-28T23:27:16.425Z,19.3
2023-02-28T23:32:24.375Z,19.3
2023-02-28T23:37:32.306Z,19.3
2023-02-28T23:42:40.269Z,19.3
2023-02-28T23:47:48.229Z,19.2
2023-02-28T23:52:56.155Z,19.2
2023-02-28T23:58:04.130Z,19.2
